Time;durP1;ratioP1;P1;durP2;ratioP2;P2;SDS_P1;SDS_P2;PMS_P1;PMS_P2;Temp;Humidity;BMP_temperature;BMP_pressure;BME280_temperature;BME280_humidity;BME280_pressure;Samples;Min_cycle;Max_cycle;Signal;HPM_P1;HPM_P2
2022/10/16 00:03:52;;;;;;;8.60;5.10;;;;;15.70;96290.00;;;;8327826;28;20245;-82
2022/10/16 00:08:00;;;;;;;11.35;4.78;;;;;15.70;96290.00;;;;8328157;28;20241;-84
2022/10/16 00:12:04;;;;;;;16.15;5.47;;;;;15.70;96296.00;;;;8328007;28;20225;-82
2022/10/16 00:16:08;;;;;;;8.43;4.80;;;;;15.70;96293.00;;;;8326879;28;20213;-82
2022/10/16 00:20:42;;;;;;;15.15;5.10;;;;;15.80;96294.00;;;;8327956;28;20224;-82
2022/10/16 00:24:47;;;;;;;12.68;5.15;;;;;15.80;96305.00;;;;8327033;28;20221;-82
2022/10/16 00:28:52;;;;;;;10.13;4.72;;;;;15.80;96302.00;;;;8327986;28;20217;-79
2022/10/16 00:32:55;;;;;;;7.90;5.30;;;;;15.80;96296.00;;;;8327065;28;20228;-77
2022/10/16 00:36:58;;;;;;;6.13;4.88;;;;;15.70;96283.00;;;;8328067;28;20228;-76
2022/10/16 00:41:37;;;;;;;9.88;5.20;;;;;15.70;96293.00;;;;8326971;28;20657;-77
2022/10/16 00:45:40;;;;;;;7.68;5.13;;;;;15.70;96289.00;;;;8326902;28;20237;-76
2022/10/16 00:49:43;;;;;;;17.30;5.72;;;;;15.70;96279.00;;;;8327203;28;20551;-77
2022/10/16 00:53:47;;;;;;;9.65;5.80;;;;;15.70;96294.00;;;;8327073;28;20221;-75
2022/10/16 00:58:25;;;;;;;9.45;5.55;;;;;15.70;96301.00;;;;8322326;28;20644;-73
2022/10/16 01:02:28;;;;;;;10.48;5.53;;;;;15.70;96295.00;;;;8332546;28;20647;-73
2022/10/16 01:06:38;;;;;;;8.60;4.93;;;;;15.70;96290.00;;;;8326880;28;20670;-73
2022/10/16 01:11:10;;;;;;;8.63;4.13;;;;;15.70;96296.00;;;;8326890;28;20229;-73
2022/10/16 01:15:23;;;;;;;12.43;4.97;;;;;15.70;96308.00;;;;8321099;28;20255;-73
2022/10/16 01:19:39;;;;;;;10.02;5.05;;;;;15.70;96314.00;;;;8337649;28;20244;-74
2022/10/16 01:23:52;;;;;;;11.07;5.20;;;;;15.70;96312.00;;;;8326603;28;20251;-74
2022/10/16 01:27:58;;;;;;;11.15;5.00;;;;;15.70;96324.00;;;;8326850;28;20573;-73
2022/10/16 01:32:31;;;;;;;8.60;4.55;;;;;15.70;96320.00;;;;8326713;28;20321;-72
2022/10/16 01:36:39;;;;;;;9.30;5.22;;;;;15.70;96321.00;;;;8326906;28;20610;-73
2022/10/16 01:40:47;;;;;;;8.50;4.78;;;;;15.70;96323.00;;;;8332790;28;20570;-73
2022/10/16 01:45:18;;;;;;;9.73;4.97;;;;;15.70;96333.00;;;;8332113;28;20232;-73
2022/10/16 01:49:26;;;;;;;9.25;4.88;;;;;15.80;96328.00;;;;8331608;28;20260;-75
2022/10/16 01:53:30;;;;;;;9.27;4.65;;;;;15.70;96328.00;;;;8332142;28;20689;-75
2022/10/16 01:57:37;;;;;;;8.75;5.40;;;;;15.70;96330.00;;;;8332629;28;20220;-75
2022/10/16 02:01:46;;;;;;;11.75;5.20;;;;;15.70;96340.00;;;;8331754;28;20217;-76
2022/10/16 02:06:19;;;;;;;13.00;5.50;;;;;15.60;96333.00;;;;8332716;28;20225;-76
2022/10/16 02:10:24;;;;;;;11.98;6.13;;;;;15.60;96338.00;;;;8331280;28;20663;-74
2022/10/16 02:14:28;;;;;;;14.30;6.05;;;;;15.60;96342.00;;;;8332166;28;20221;-74
2022/10/16 02:18:31;;;;;;;9.63;5.55;;;;;15.60;96339.00;;;;8331476;28;20237;-75
2022/10/16 02:23:05;;;;;;;10.85;5.53;;;;;15.60;96336.00;;;;8331608;28;20600;-76
2022/10/16 02:27:13;;;;;;;8.45;5.00;;;;;15.60;96338.00;;;;8330733;28;20304;-73
2022/10/16 02:31:22;;;;;;;17.48;5.35;;;;;15.60;96323.00;;;;8331910;28;20263;-73
2022/10/16 02:35:33;;;;;;;9.68;5.22;;;;;15.60;96332.00;;;;8331720;28;20567;-74
2022/10/16 02:39:36;;;;;;;10.23;5.60;;;;;15.60;96341.00;;;;8331356;28;20224;-75
2022/10/16 02:43:40;;;;;;;10.60;5.75;;;;;15.50;96358.00;;;;8331164;28;20221;-75
2022/10/16 02:47:43;;;;;;;13.35;5.35;;;;;15.50;96360.00;;;;8330032;28;20220;-76
2022/10/16 02:51:46;;;;;;;11.32;5.88;;;;;15.60;96354.00;;;;8330546;28;20217;-76
2022/10/16 02:56:23;;;;;;;24.08;6.32;;;;;15.60;96343.00;;;;8330022;28;20225;-76
2022/10/16 03:00:28;;;;;;;12.23;6.18;;;;;15.60;96339.00;;;;8329309;28;20630;-76
2022/10/16 03:05:02;;;;;;;8.43;5.95;;;;;15.50;96353.00;;;;8329755;28;20225;-77
2022/10/16 03:09:05;;;;;;;14.40;7.43;;;;;15.60;96371.00;;;;8329803;28;20690;-77
2022/10/16 03:13:08;;;;;;;18.08;6.88;;;;;15.60;96366.00;;;;8328817;28;20217;-77
2022/10/16 03:17:13;;;;;;;12.50;6.65;;;;;15.60;96356.00;;;;8330057;28;20618;-78
2022/10/16 03:21:46;;;;;;;15.95;6.25;;;;;15.70;96368.00;;;;8329047;28;20218;-78
2022/10/16 03:25:50;;;;;;;12.43;6.28;;;;;15.70;96363.00;;;;8329078;28;20335;-79
2022/10/16 03:29:53;;;;;;;24.88;7.55;;;;;15.70;96356.00;;;;8329189;28;20669;-78
2022/10/16 03:34:31;;;;;;;9.95;5.55;;;;;15.70;96357.00;;;;8329451;28;20228;-78
2022/10/16 03:38:34;;;;;;;12.77;5.28;;;;;15.70;96360.00;;;;8328416;28;20244;-78
2022/10/16 03:42:37;;;;;;;10.15;4.65;;;;;15.70;96353.00;;;;8328811;28;20647;-78
2022/10/16 03:47:14;;;;;;;8.57;5.47;;;;;15.60;96345.00;;;;8328440;28;20225;-78
2022/10/16 03:51:19;;;;;;;8.75;4.53;;;;;15.50;96362.00;;;;8327809;28;20225;-77
2022/10/16 03:55:22;;;;;;;6.93;3.97;;;;;15.40;96362.00;;;;8327958;28;20221;-78
2022/10/16 03:59:25;;;;;;;10.82;5.45;;;;;15.30;96363.00;;;;8328459;28;20240;-78
2022/10/16 04:03:28;;;;;;;7.38;4.57;;;;;15.10;96371.00;;;;8328093;28;20244;-78
2022/10/16 04:07:33;;;;;;;9.63;5.03;;;;;15.10;96376.00;;;;8328070;28;20221;-79
2022/10/16 04:11:36;;;;;;;9.32;4.63;;;;;15.00;96380.00;;;;8327512;28;20682;-79
2022/10/16 04:16:13;;;;;;;9.82;4.72;;;;;15.00;96380.00;;;;8328048;28;20217;-80
2022/10/16 04:20:16;;;;;;;11.23;4.93;;;;;15.10;96380.00;;;;8327392;28;20228;-78
2022/10/16 04:24:26;;;;;;;11.18;4.70;;;;;15.10;96376.00;;;;8327650;28;20304;-81
2022/10/16 04:29:00;;;;;;;9.75;4.63;;;;;15.00;96383.00;;;;8327679;28;20231;-80
2022/10/16 04:33:03;;;;;;;13.65;5.00;;;;;15.00;96379.00;;;;8327428;28;20654;-79
2022/10/16 04:37:07;;;;;;;9.70;5.30;;;;;15.00;96390.00;;;;8327427;28;20240;-79
2022/10/16 04:41:11;;;;;;;12.75;5.95;;;;;15.00;96391.00;;;;8327215;28;20217;-79
2022/10/16 04:45:14;;;;;;;9.32;5.22;;;;;15.00;96389.00;;;;8328100;28;20225;-79
2022/10/16 04:49:19;;;;;;;11.48;5.00;;;;;15.00;96391.00;;;;8326732;28;20579;-78
2022/10/16 04:53:22;;;;;;;9.57;5.50;;;;;15.00;96397.00;;;;8326843;28;20225;-78
2022/10/16 04:57:26;;;;;;;10.05;5.80;;;;;15.00;96399.00;;;;8327453;28;20221;-78
2022/10/16 05:01:32;;;;;;;13.23;5.63;;;;;15.00;96396.00;;;;8326429;28;20249;-78
2022/10/16 05:06:06;;;;;;;12.90;5.68;;;;;15.10;96399.00;;;;8327752;28;20296;-80
2022/10/16 05:10:09;;;;;;;11.43;5.63;;;;;15.10;96399.00;;;;8327649;28;20232;-79
2022/10/16 05:14:14;;;;;;;16.13;7.20;;;;;15.10;96404.00;;;;8331939;28;20224;-79
2022/10/16 05:18:18;;;;;;;11.85;6.70;;;;;15.10;96416.00;;;;8333002;28;20236;-79
2022/10/16 05:22:52;;;;;;;12.60;6.50;;;;;15.10;96415.00;;;;8333125;28;20547;-79
2022/10/16 05:26:55;;;;;;;24.55;9.40;;;;;15.10;96408.00;;;;8331784;28;20243;-80
2022/10/16 05:31:00;;;;;;;15.43;8.20;;;;;15.20;96396.00;;;;8332663;28;20247;-79
2022/10/16 05:35:03;;;;;;;14.68;8.25;;;;;15.20;96368.00;;;;8332990;28;20675;-73
2022/10/16 05:39:12;;;;;;;19.33;9.13;;;;;15.20;96378.00;;;;8332791;28;20253;-73
2022/10/16 05:43:15;;;;;;;22.70;10.10;;;;;15.10;96395.00;;;;8332783;28;20594;-74
2022/10/16 05:47:20;;;;;;;17.90;9.77;;;;;15.10;96391.00;;;;8332560;28;20221;-74
2022/10/16 05:51:54;;;;;;;17.35;9.05;;;;;15.00;96394.00;;;;8331798;28;20669;-74
2022/10/16 05:55:57;;;;;;;16.15;8.43;;;;;15.00;96408.00;;;;8330507;28;20567;-75
2022/10/16 06:00:34;;;;;;;15.20;9.13;;;;;14.90;96396.00;;;;8331707;28;20232;-76
2022/10/16 06:05:13;;;;;;;19.27;9.73;;;;;14.90;96407.00;;;;8330771;28;20229;-75
2022/10/16 06:09:50;;;;;;;21.85;8.95;;;;;14.90;96417.00;;;;8331805;28;20606;-76
2022/10/16 06:13:56;;;;;;;18.25;9.80;;;;;15.00;96419.00;;;;8330690;28;20245;-76
2022/10/16 06:17:59;;;;;;;21.13;9.02;;;;;15.10;96425.00;;;;8330991;28;20233;-78
2022/10/16 06:22:04;;;;;;;12.35;7.75;;;;;15.10;96440.00;;;;8326256;28;20248;-76
2022/10/16 06:26:38;;;;;;;15.65;8.30;;;;;15.10;96442.00;;;;8331747;28;20233;-76
2022/10/16 06:31:15;;;;;;;17.52;8.95;;;;;15.20;96453.00;;;;8330131;28;20229;-78
2022/10/16 06:35:18;;;;;;;17.95;9.35;;;;;15.20;96466.00;;;;8330536;28;20225;-78
2022/10/16 06:39:23;;;;;;;17.85;9.60;;;;;15.30;96479.00;;;;8330278;28;20225;-78
2022/10/16 06:43:26;;;;;;;17.52;10.20;;;;;15.40;96483.00;;;;8330774;28;20252;-78
2022/10/16 06:48:03;;;;;;;21.83;10.70;;;;;15.50;96494.00;;;;8330348;28;20555;-82
2022/10/16 06:52:06;;;;;;;14.65;9.57;;;;;15.60;96504.00;;;;8329879;28;20658;-77
2022/10/16 06:56:13;;;;;;;18.50;9.57;;;;;15.80;96508.00;;;;8328542;28;20262;-79
2022/10/16 07:00:44;;;;;;;17.33;9.75;;;;;16.00;96506.00;;;;8330519;28;20705;-76
2022/10/16 07:05:21;;;;;;;21.08;8.80;;;;;16.30;96516.00;;;;8327860;28;20208;-77
2022/10/16 07:09:57;;;;;;;11.00;7.10;;;;;16.30;96522.00;;;;8329000;28;20225;-79
2022/10/16 07:14:36;;;;;;;11.82;7.32;;;;;16.50;96525.00;;;;8328118;28;20256;-79
2022/10/16 07:24:12;;;;;;;12.32;6.60;;;;;16.60;96529.00;;;;8328697;28;20256;-80
2022/10/16 07:28:46;;;;;;;10.65;6.50;;;;;16.50;96524.00;;;;8327939;28;20648;-81
2022/10/16 07:33:24;;;;;;;8.13;5.65;;;;;16.70;96530.00;;;;8327435;28;20262;-80
2022/10/16 07:37:58;;;;;;;9.85;6.15;;;;;16.90;96532.00;;;;8327197;28;20563;-84
2022/10/16 07:42:35;;;;;;;12.07;5.82;;;;;17.20;96545.00;;;;8319161;28;20233;-80
2022/10/16 07:46:38;;;;;;;6.55;4.93;;;;;17.60;96543.00;;;;8329044;28;20236;-79
2022/10/16 07:50:43;;;;;;;9.57;4.90;;;;;17.80;96552.00;;;;8327808;28;20229;-81
2022/10/16 07:55:16;;;;;;;7.97;4.97;;;;;18.00;96548.00;;;;8328089;28;20225;-79
2022/10/16 07:59:53;;;;;;;12.18;6.60;;;;;18.10;96559.00;;;;8327584;28;20220;-78
2022/10/16 08:04:30;;;;;;;12.00;5.65;;;;;18.20;96565.00;;;;8326003;28;20651;-80
2022/10/16 08:09:09;;;;;;;6.50;5.47;;;;;18.40;96571.00;;;;8326407;28;20237;-82
2022/10/16 08:13:43;;;;;;;8.10;4.88;;;;;18.80;96568.00;;;;8327130;28;20244;-82
2022/10/16 08:18:20;;;;;;;8.93;4.40;;;;;19.00;96568.00;;;;8324917;28;20217;-80
2022/10/16 08:27:56;;;;;;;4.47;3.60;;;;;19.10;96588.00;;;;8325254;28;20272;-81
2022/10/16 08:31:59;;;;;;;5.88;3.90;;;;;19.10;96579.00;;;;8327288;28;20614;-79
2022/10/16 08:36:37;;;;;;;5.93;4.78;;;;;19.10;96573.00;;;;8326649;28;20229;-79
2022/10/16 08:40:43;;;;;;;9.48;4.45;;;;;19.20;96571.00;;;;8327321;28;20244;-79
2022/10/16 08:45:25;;;;;;;5.97;3.97;;;;;19.30;96567.00;;;;8327365;28;20221;-78
2022/10/16 08:49:57;;;;;;;4.88;4.38;;;;;19.10;96569.00;;;;8332539;28;20217;-78
2022/10/16 08:54:30;;;;;;;7.53;4.28;;;;;18.90;96562.00;;;;8332788;28;20655;-82
2022/10/16 08:59:05;;;;;;;5.53;4.38;;;;;18.70;96573.00;;;;8332907;28;20221;-82
2022/10/16 09:03:57;;;;;;;6.03;4.63;;;;;18.50;96583.00;;;;8333038;28;20286;-82
2022/10/16 09:08:28;;;;;;;5.75;4.95;;;;;18.30;96576.00;;;;8263283;28;20756;-78
2022/10/16 09:12:39;;;;;;;7.50;4.78;;;;;18.30;96575.00;;;;8263140;28;20285;-78
2022/10/16 09:22:02;;;;;;;4.75;4.28;;;;;18.70;96588.00;;;;8335237;28;20506;-78
2022/10/16 09:26:35;;;;;;;5.75;4.07;;;;;19.00;96598.00;;;;8333165;28;20233;-77
2022/10/16 09:30:39;;;;;;;4.90;4.15;;;;;19.20;96601.00;;;;8332860;28;20229;-78
2022/10/16 09:35:14;;;;;;;7.50;3.50;;;;;19.50;96610.00;;;;8318142;28;20247;-78
2022/10/16 09:39:49;;;;;;;5.97;3.42;;;;;19.90;96615.00;;;;8332319;28;20221;-77
2022/10/16 09:44:26;;;;;;;4.53;2.75;;;;;20.20;96615.00;;;;8332468;28;20240;-77
2022/10/16 09:49:00;;;;;;;6.85;2.97;;;;;20.50;96619.00;;;;8331334;28;20594;-79
2022/10/16 09:53:11;;;;;;;3.55;2.67;;;;;20.70;96620.00;;;;8330860;28;20221;-76
2022/10/16 09:57:49;;;;;;;3.08;2.75;;;;;21.00;96629.00;;;;8331837;28;20235;-76
2022/10/16 10:02:19;;;;;;;3.28;2.70;;;;;21.20;96628.00;;;;8328068;28;20252;-81
2022/10/16 10:06:54;;;;;;;5.07;2.00;;;;;21.40;96622.00;;;;8329278;28;20256;-83
2022/10/16 10:11:00;;;;;;;2.38;2.00;;;;;21.80;96614.00;;;;8331454;28;20228;-81
2022/10/16 10:15:37;;;;;;;2.58;2.00;;;;;22.10;96625.00;;;;8330446;28;20562;-81
2022/10/16 10:19:46;;;;;;;2.10;1.95;;;;;22.40;96627.00;;;;8330464;28;20606;-81
2022/10/16 10:23:57;;;;;;;7.68;2.17;;;;;22.60;96627.00;;;;8330731;28;20220;-81
2022/10/16 10:28:29;;;;;;;4.90;2.25;;;;;22.70;96635.00;;;;8330409;28;20224;-81
2022/10/16 10:32:40;;;;;;;5.53;1.98;;;;;22.80;96631.00;;;;8329690;28;20225;-80
2022/10/16 10:37:16;;;;;;;2.65;1.90;;;;;22.80;96631.00;;;;8329221;28;20275;-81
2022/10/16 10:42:01;;;;;;;2.60;2.00;;;;;22.90;96629.00;;;;8329740;28;20225;-80
2022/10/16 10:46:29;;;;;;;3.60;1.85;;;;;23.10;96633.00;;;;8328862;28;20606;-80
2022/10/16 10:50:58;;;;;;;4.38;1.80;;;;;23.40;96634.00;;;;8328472;28;20721;-80
2022/10/16 10:55:33;;;;;;;2.78;1.90;;;;;23.50;96631.00;;;;8320186;28;20286;-81
2022/10/16 11:00:21;;;;;;;3.22;1.88;;;;;23.70;96629.00;;;;8327860;28;20217;-80
2022/10/16 11:04:56;;;;;;;6.60;2.10;;;;;23.80;96630.00;;;;8327351;28;20615;-81
2022/10/16 11:09:28;;;;;;;2.40;1.70;;;;;23.90;96631.00;;;;8328186;28;20355;-79
2022/10/16 11:14:04;;;;;;;1.88;1.80;;;;;23.90;96631.00;;;;8326223;28;20643;-78
2022/10/16 11:18:44;;;;;;;6.43;1.95;;;;;23.90;96637.00;;;;8327746;28;20524;-78
2022/10/16 11:23:17;;;;;;;2.42;1.90;;;;;23.90;96632.00;;;;8328123;28;20244;-84
2022/10/16 11:27:53;;;;;;;7.10;2.47;;;;;24.10;96639.00;;;;8322821;28;20263;-80
2022/10/16 11:32:30;;;;;;;1.90;1.80;;;;;24.10;96633.00;;;;8328466;28;20225;-84
2022/10/16 11:37:10;;;;;;;5.13;2.00;;;;;24.10;96633.00;;;;8324564;28;20264;-81
2022/10/16 11:41:44;;;;;;;4.78;1.90;;;;;24.20;96631.00;;;;8328448;28;20217;-81
2022/10/16 11:46:18;;;;;;;3.28;1.92;;;;;24.30;96637.00;;;;8327766;28;20232;-81
2022/10/16 11:50:54;;;;;;;3.33;2.30;;;;;24.30;96628.00;;;;8327457;28;20666;-79
2022/10/16 11:55:32;;;;;;;2.92;1.75;;;;;24.30;96627.00;;;;8326603;28;20233;-82
2022/10/16 12:00:06;;;;;;;3.40;2.13;;;;;24.50;96625.00;;;;8326668;28;20263;-81
2022/10/16 12:04:45;;;;;;;3.83;2.13;;;;;24.50;96625.00;;;;8325654;28;20217;-81
2022/10/16 12:09:16;;;;;;;1.80;1.70;;;;;24.60;96630.00;;;;8326608;28;20663;-80
2022/10/16 12:14:04;;;;;;;1.95;1.73;;;;;24.60;96631.00;;;;8326142;28;20244;-78
2022/10/16 12:18:29;;;;;;;2.17;1.90;;;;;24.70;96628.00;;;;8327239;28;20216;-78
2022/10/16 12:23:07;;;;;;;1.90;1.77;;;;;24.80;96626.00;;;;8326205;28;20220;-79
2022/10/16 12:27:44;;;;;;;1.42;1.33;;;;;24.40;96633.00;;;;8326535;28;20216;-77
2022/10/16 12:32:27;;;;;;;1.50;1.40;;;;;24.20;96639.00;;;;8327450;28;20244;-78
2022/10/16 12:36:48;;;;;;;4.30;1.60;;;;;24.00;96650.00;;;;8326488;28;20217;-77
2022/10/16 12:41:26;;;;;;;4.60;1.60;;;;;23.80;96646.00;;;;8327483;28;20221;-77
2022/10/16 12:46:02;;;;;;;1.40;1.30;;;;;23.60;96643.00;;;;8327027;28;20213;-77
2022/10/16 12:50:26;;;;;;;1.83;1.45;;;;;23.40;96644.00;;;;8327144;28;20564;-77
2022/10/16 12:54:34;;;;;;;2.53;1.67;;;;;23.30;96646.00;;;;8326778;28;20278;-77
2022/10/16 12:59:10;;;;;;;1.17;1.17;;;;;23.30;96659.00;;;;8325770;28;20225;-76
2022/10/16 13:04:02;;;;;;;1.83;1.60;;;;;23.20;96660.00;;;;8326649;28;20213;-75
2022/10/16 13:08:23;;;;;;;2.53;1.80;;;;;23.40;96661.00;;;;8248875;28;20631;-76
2022/10/16 13:13:01;;;;;;;4.15;1.60;;;;;23.60;96652.00;;;;8325635;28;20602;-77
2022/10/16 13:17:13;;;;;;;2.03;1.90;;;;;23.70;96654.00;;;;8325445;28;20213;-76
2022/10/16 13:21:32;;;;;;;1.90;1.80;;;;;23.70;96652.00;;;;8325599;28;20221;-77
2022/10/16 13:25:47;;;;;;;1.90;1.52;;;;;23.80;96659.00;;;;8325882;28;20275;-76
2022/10/16 13:29:55;;;;;;;2.05;1.40;;;;;23.70;96655.00;;;;8325515;28;20244;-76
2022/10/16 13:34:25;;;;;;;3.25;1.90;;;;;23.70;96653.00;;;;8328519;28;20259;-76
2022/10/16 13:38:31;;;;;;;4.90;1.70;;;;;23.70;96665.00;;;;8332036;28;20551;-76
2022/10/16 13:42:36;;;;;;;1.85;1.80;;;;;23.90;96663.00;;;;8337018;28;20225;-76
2022/10/16 13:47:25;;;;;;;3.10;1.77;;;;;23.90;96674.00;;;;8329377;28;20220;-76
2022/10/16 13:51:29;;;;;;;1.95;1.60;;;;;23.90;96681.00;;;;8296942;28;20250;-76
2022/10/16 13:56:04;;;;;;;1.60;1.50;;;;;23.90;96691.00;;;;8314205;28;20267;-75
2022/10/16 14:00:40;;;;;;;4.50;1.60;;;;;23.90;96673.00;;;;8330005;28;20218;-76
2022/10/16 14:05:18;;;;;;;2.20;1.55;;;;;24.00;96672.00;;;;8328561;28;20221;-79
2022/10/16 14:09:53;;;;;;;4.40;1.73;;;;;24.10;96681.00;;;;8329761;28;20233;-77
2022/10/16 14:14:30;;;;;;;5.20;1.98;;;;;24.10;96683.00;;;;8328973;28;20665;-77
2022/10/16 14:19:06;;;;;;;1.63;1.55;;;;;24.20;96692.00;;;;8329753;28;20221;-76
2022/10/16 14:23:42;;;;;;;2.45;1.63;;;;;24.30;96677.00;;;;8330825;28;20547;-76
2022/10/16 14:28:17;;;;;;;1.88;1.52;;;;;24.30;96684.00;;;;8330075;28;20563;-77
2022/10/16 14:32:24;;;;;;;5.20;1.77;;;;;24.40;96685.00;;;;8329559;28;20304;-76
2022/10/16 14:36:29;;;;;;;1.85;1.58;;;;;24.40;96686.00;;;;8330756;28;20214;-76
2022/10/16 14:41:02;;;;;;;1.55;1.45;;;;;24.40;96690.00;;;;8330394;28;20642;-77
2022/10/16 14:45:11;;;;;;;4.90;1.80;;;;;24.50;96695.00;;;;8329815;28;20221;-77
2022/10/16 14:49:21;;;;;;;1.90;1.70;;;;;24.40;96687.00;;;;8329465;28;20271;-76
2022/10/16 14:53:50;;;;;;;2.15;1.35;;;;;24.40;96690.00;;;;8330254;28;20713;-76
2022/10/16 14:57:56;;;;;;;2.50;1.60;;;;;24.30;96701.00;;;;8324922;28;20677;-76
2022/10/16 15:02:32;;;;;;;2.38;1.50;;;;;24.30;96689.00;;;;8337287;28;20224;-76
2022/10/16 15:06:36;;;;;;;3.30;1.63;;;;;24.30;96690.00;;;;8327486;28;20220;-77
2022/10/16 15:11:13;;;;;;;1.80;1.70;;;;;24.20;96688.00;;;;8328796;28;20244;-76
2022/10/16 15:15:28;;;;;;;1.90;1.70;;;;;24.00;96688.00;;;;8328203;28;20213;-76
2022/10/16 15:19:33;;;;;;;4.38;1.67;;;;;23.80;96693.00;;;;8329085;28;20228;-77
2022/10/16 15:23:42;;;;;;;1.80;1.70;;;;;23.70;96697.00;;;;8329177;28;20221;-76
2022/10/16 15:27:46;;;;;;;1.52;1.52;;;;;23.50;96695.00;;;;8328366;28;20229;-77
2022/10/16 15:32:22;;;;;;;3.42;1.90;;;;;23.20;96701.00;;;;8326490;28;20228;-76
2022/10/16 15:37:03;;;;;;;3.15;1.85;;;;;22.90;96704.00;;;;8328103;28;20225;-77
2022/10/16 15:41:06;;;;;;;2.80;1.77;;;;;22.60;96718.00;;;;8324475;28;20681;-77
2022/10/16 15:45:43;;;;;;;6.80;1.83;;;;;22.30;96710.00;;;;8326951;28;20232;-77
2022/10/16 15:50:20;;;;;;;3.78;1.75;;;;;21.80;96709.00;;;;8326205;28;20225;-77
2022/10/16 15:54:59;;;;;;;5.32;2.00;;;;;21.30;96711.00;;;;8326545;28;20730;-76
2022/10/16 15:59:33;;;;;;;2.90;1.90;;;;;21.00;96714.00;;;;8327642;28;20290;-77
2022/10/16 16:04:11;;;;;;;2.42;2.33;;;;;20.60;96713.00;;;;8326569;28;20225;-76
2022/10/16 16:08:46;;;;;;;4.45;2.55;;;;;20.40;96722.00;;;;8326243;28;20241;-76
2022/10/16 16:13:25;;;;;;;11.27;7.70;;;;;20.30;96712.00;;;;8321387;28;20503;-76
2022/10/16 16:18:05;;;;;;;9.48;6.65;;;;;20.20;96708.00;;;;8326445;28;20299;-76
2022/10/16 16:27:33;;;;;;;7.32;4.15;;;;;20.10;96719.00;;;;8356927;28;20304;-77
2022/10/16 16:32:09;;;;;;;4.03;3.38;;;;;20.00;96717.00;;;;8359544;28;20216;-77
2022/10/16 16:36:42;;;;;;;4.93;3.50;;;;;20.00;96721.00;;;;8364382;28;20216;-75
2022/10/16 16:41:20;;;;;;;6.80;3.95;;;;;19.80;96728.00;;;;8327034;28;20266;-76
2022/10/16 16:45:55;;;;;;;5.07;3.50;;;;;19.70;96739.00;;;;8325623;28;20295;-76
2022/10/16 16:50:31;;;;;;;7.10;3.90;;;;;19.50;96751.00;;;;8325486;28;20264;-76
2022/10/16 16:55:08;;;;;;;4.15;3.72;;;;;19.30;96752.00;;;;8326097;28;20217;-76
2022/10/16 16:59:47;;;;;;;6.15;4.18;;;;;19.00;96761.00;;;;8325635;28;20248;-76
2022/10/16 17:04:26;;;;;;;9.82;4.63;;;;;18.80;96762.00;;;;8326706;28;20225;-76
2022/10/16 17:09:02;;;;;;;8.80;6.15;;;;;18.50;96760.00;;;;8326421;28;20225;-77
2022/10/16 17:13:37;;;;;;;12.60;7.40;;;;;18.30;96770.00;;;;8331864;28;20304;-77
2022/10/16 17:18:13;;;;;;;14.98;8.50;;;;;18.10;96763.00;;;;8331954;28;20296;-77
2022/10/16 17:22:16;;;;;;;10.00;7.93;;;;;18.00;96771.00;;;;8332253;28;20214;-78
2022/10/16 17:26:19;;;;;;;16.02;7.82;;;;;18.10;96781.00;;;;8323531;28;20229;-80
2022/10/16 17:30:24;;;;;;;19.20;9.35;;;;;18.00;96782.00;;;;8332570;28;20248;-79
2022/10/16 17:35:02;;;;;;;17.08;7.80;;;;;18.00;96786.00;;;;8332000;28;20229;-79
2022/10/16 17:39:36;;;;;;;11.55;7.82;;;;;18.10;96796.00;;;;8326829;28;20221;-82
2022/10/16 17:44:18;;;;;;;15.63;9.05;;;;;18.20;96796.00;;;;8331235;28;20567;-82
2022/10/16 17:48:49;;;;;;;17.70;9.57;;;;;18.20;96798.00;;;;8330794;28;20230;-82
2022/10/16 17:53:28;;;;;;;24.42;10.02;;;;;18.30;96798.00;;;;8330540;28;20225;-82
2022/10/16 17:58:02;;;;;;;14.95;8.93;;;;;18.40;96822.00;;;;8331046;28;20618;-79
2022/10/16 18:02:41;;;;;;;18.88;13.07;;;;;18.50;96826.00;;;;8331232;28;20232;-79
2022/10/16 18:07:17;;;;;;;15.85;8.00;;;;;18.60;96837.00;;;;8330475;28;20213;-79
2022/10/16 18:11:59;;;;;;;18.70;14.32;;;;;18.70;96848.00;;;;8330665;28;20240;-78
2022/10/16 18:16:30;;;;;;;15.88;8.10;;;;;18.70;96848.00;;;;8364339;28;20220;-80
2022/10/16 18:20:33;;;;;;;20.25;17.83;;;;;18.80;96841.00;;;;8331538;28;20218;-80
2022/10/16 18:25:10;;;;;;;19.13;10.40;;;;;18.80;96841.00;;;;8330213;28;20283;-79
2022/10/16 18:29:49;;;;;;;21.23;15.40;;;;;18.80;96843.00;;;;8330133;28;20221;-79
2022/10/16 18:34:26;;;;;;;13.05;7.95;;;;;18.80;96846.00;;;;8329450;28;20643;-78
2022/10/16 18:39:06;;;;;;;13.55;7.93;;;;;18.80;96844.00;;;;8330123;28;20283;-79
2022/10/16 18:43:42;;;;;;;16.13;9.73;;;;;18.80;96839.00;;;;8329688;28;20350;-78
2022/10/16 18:48:21;;;;;;;13.60;9.15;;;;;18.80;96837.00;;;;8330365;28;20706;-78
2022/10/16 18:52:55;;;;;;;10.60;7.50;;;;;18.90;96833.00;;;;8327752;28;20682;-80
2022/10/16 18:57:32;;;;;;;14.32;8.80;;;;;18.90;96840.00;;;;8328138;28;20283;-82
2022/10/16 19:02:12;;;;;;;14.73;9.23;;;;;18.90;96845.00;;;;8328926;28;20304;-80
2022/10/16 19:06:46;;;;;;;12.18;7.00;;;;;18.90;96844.00;;;;8329279;28;20551;-78
2022/10/16 19:11:20;;;;;;;12.98;8.75;;;;;18.90;96860.00;;;;8328404;28;20652;-78
2022/10/16 19:15:57;;;;;;;11.30;7.68;;;;;19.00;96857.00;;;;8328977;28;20634;-78
2022/10/16 19:20:33;;;;;;;14.63;8.38;;;;;19.00;96861.00;;;;8328667;28;20217;-78
2022/10/16 19:24:38;;;;;;;13.57;8.13;;;;;19.00;96863.00;;;;8329102;28;20275;-78
2022/10/16 19:29:15;;;;;;;14.52;8.27;;;;;18.90;96866.00;;;;8328445;28;20312;-79
2022/10/16 19:33:53;;;;;;;16.98;8.93;;;;;18.90;96867.00;;;;8321491;28;20324;-79
2022/10/16 19:37:56;;;;;;;20.25;10.40;;;;;18.90;96871.00;;;;8325415;28;20232;-79
2022/10/16 19:42:41;;;;;;;12.43;6.30;;;;;18.90;96864.00;;;;8319943;28;20290;-79
2022/10/16 19:47:10;;;;;;;13.00;7.60;;;;;18.90;96861.00;;;;8328562;28;20213;-79
2022/10/16 19:51:48;;;;;;;10.18;6.35;;;;;18.90;96869.00;;;;8327286;28;20342;-78
2022/10/16 19:56:26;;;;;;;12.95;6.88;;;;;18.80;96863.00;;;;8328501;28;20243;-79
2022/10/16 20:01:01;;;;;;;9.60;5.78;;;;;18.80;96871.00;;;;8327431;28;20593;-78
2022/10/16 20:05:05;;;;;;;15.18;8.18;;;;;18.90;96879.00;;;;8327504;28;20240;-78
2022/10/16 20:09:09;;;;;;;13.20;6.93;;;;;18.90;96898.00;;;;8327537;28;20229;-79
2022/10/16 20:13:45;;;;;;;9.70;6.07;;;;;18.90;96902.00;;;;8327835;28;20324;-77
2022/10/16 20:18:24;;;;;;;11.15;8.02;;;;;18.80;96905.00;;;;8327205;28;20217;-78
2022/10/16 20:22:27;;;;;;;10.73;6.30;;;;;18.80;96908.00;;;;8326407;28;20230;-84
2022/10/16 20:26:30;;;;;;;8.25;5.95;;;;;18.70;96910.00;;;;8327131;28;20225;-83
2022/10/16 20:31:09;;;;;;;7.88;5.57;;;;;18.60;96899.00;;;;8328031;28;20225;-83
2022/10/16 20:35:43;;;;;;;8.60;6.18;;;;;18.60;96897.00;;;;8327237;28;20226;-83
2022/10/16 20:39:48;;;;;;;14.23;8.52;;;;;18.50;96896.00;;;;8328355;28;20635;-84
2022/10/16 20:44:21;;;;;;;11.90;6.68;;;;;18.50;96906.00;;;;8331437;28;20559;-83
2022/10/16 20:48:25;;;;;;;10.98;5.72;;;;;18.40;96902.00;;;;8334705;28;20606;-82
2022/10/16 20:53:01;;;;;;;10.82;5.18;;;;;18.30;96909.00;;;;8333972;28;20273;-82
2022/10/16 20:57:06;;;;;;;13.93;6.30;;;;;18.20;96908.00;;;;8328012;28;20279;-82
2022/10/16 21:01:12;;;;;;;13.65;6.43;;;;;18.10;96922.00;;;;8327270;28;20684;-82
2022/10/16 21:05:16;;;;;;;10.15;6.03;;;;;18.00;96932.00;;;;8328790;28;20300;-83
2022/10/16 21:09:54;;;;;;;12.55;6.00;;;;;17.90;96930.00;;;;8333278;28;20225;-83
2022/10/16 21:14:02;;;;;;;13.52;6.40;;;;;17.60;96935.00;;;;8332960;28;20232;-83
2022/10/16 21:18:05;;;;;;;13.45;7.53;;;;;17.40;96938.00;;;;8333380;28;20225;-83
2022/10/16 21:22:41;;;;;;;14.52;7.18;;;;;17.30;96945.00;;;;8333462;28;20229;-83
2022/10/16 21:26:44;;;;;;;16.55;6.63;;;;;17.20;96941.00;;;;8332303;28;20221;-84
2022/10/16 21:31:21;;;;;;;15.13;7.32;;;;;17.00;96943.00;;;;8332799;28;20303;-84
2022/10/16 21:35:26;;;;;;;11.43;6.80;;;;;16.80;96942.00;;;;8332426;28;20719;-85
2022/10/16 21:40:00;;;;;;;13.18;6.88;;;;;16.60;96946.00;;;;8332786;28;20651;-84
2022/10/16 21:44:04;;;;;;;15.98;7.53;;;;;16.40;96941.00;;;;8332367;28;20340;-86
2022/10/16 21:48:07;;;;;;;21.83;8.10;;;;;16.20;96949.00;;;;8332763;28;20222;-86
2022/10/16 21:52:29;;;;;;;14.93;7.72;;;;;16.20;96946.00;;;;8332207;28;20229;-86
2022/10/16 21:56:33;;;;;;;14.63;7.55;;;;;16.20;96947.00;;;;8331804;28;20217;-86
2022/10/16 22:00:36;;;;;;;22.38;8.00;;;;;16.20;96948.00;;;;8328986;28;20232;-88
2022/10/16 22:04:39;;;;;;;17.15;7.75;;;;;16.30;96951.00;;;;8332133;28;20671;-85
2022/10/16 22:08:46;;;;;;;14.40;7.57;;;;;16.30;96954.00;;;;8331465;28;20229;-83